Fillmore, Illinois
Current Conditions -  °F | °C
As of 11:55 AM on Sunday 25 Jan 2015 (Local Time) from K3LF Reporting Station
Drizzle Drizzle  
Wind Chill: 38°   Ceiling: 300
Heat Index: 42°   Visibility: 3mi
Dew Point: 40°   Wind: 7mph
Humidity: 94%   Direction: 360°N
Pressure: 29.58"   Gusts: NA
Location:  39.12°N, 89.28°W
Report Text: K3LF 251755Z AUTO 36006KT 3SM -DZ OVC003 06/05 A2958 RMK AO2 60003 T00560047 10058 20030
Loading
Personal Weather Stations






























Interactive Weather Map New forecast layout! Learn more

10-Day Weather Forecast

Advertisements
Track Severe Weather on mobile